sensor_id;sensor_type;location;lat;lon;timestamp;P1;durP1;ratioP1;P2;durP2;ratioP2
49396;SDS011;35615;41.410;2.194;2023-04-15T00:02:28;10.60;;;2.38;;
49396;SDS011;35615;41.410;2.194;2023-04-15T00:05:05;8.77;;;2.17;;
49396;SDS011;35615;41.410;2.194;2023-04-15T00:07:36;8.88;;;2.30;;
49396;SDS011;35615;41.410;2.194;2023-04-15T00:10:24;7.10;;;2.58;;
49396;SDS011;35615;41.410;2.194;2023-04-15T00:12:55;10.95;;;2.90;;
49396;SDS011;35615;41.410;2.194;2023-04-15T00:15:40;11.40;;;2.33;;
49396;SDS011;35615;41.410;2.194;2023-04-15T00:18:25;8.02;;;1.85;;
49396;SDS011;35615;41.410;2.194;2023-04-15T00:20:56;13.93;;;2.72;;
49396;SDS011;35615;41.410;2.194;2023-04-15T00:23:23;5.07;;;1.75;;
49396;SDS011;35615;41.410;2.194;2023-04-15T00:25:54;5.80;;;2.55;;
49396;SDS011;35615;41.410;2.194;2023-04-15T00:28:27;14.70;;;2.00;;
49396;SDS011;35615;41.410;2.194;2023-04-15T00:30:55;12.63;;;2.22;;
49396;SDS011;35615;41.410;2.194;2023-04-15T00:33:26;9.50;;;1.73;;
49396;SDS011;35615;41.410;2.194;2023-04-15T00:35:58;6.40;;;2.60;;
49396;SDS011;35615;41.410;2.194;2023-04-15T00:38:39;6.05;;;1.90;;
49396;SDS011;35615;41.410;2.194;2023-04-15T00:41:16;9.45;;;2.45;;
49396;SDS011;35615;41.410;2.194;2023-04-15T00:43:56;10.20;;;2.15;;
49396;SDS011;35615;41.410;2.194;2023-04-15T00:46:36;9.02;;;2.22;;
49396;SDS011;35615;41.410;2.194;2023-04-15T00:49:08;9.73;;;2.22;;
49396;SDS011;35615;41.410;2.194;2023-04-15T00:51:46;11.32;;;2.50;;
49396;SDS011;35615;41.410;2.194;2023-04-15T00:54:24;13.18;;;2.70;;
49396;SDS011;35615;41.410;2.194;2023-04-15T00:56:55;7.68;;;2.13;;
49396;SDS011;35615;41.410;2.194;2023-04-15T00:59:35;8.47;;;2.53;;
49396;SDS011;35615;41.410;2.194;2023-04-15T01:02:14;10.05;;;2.10;;
49396;SDS011;35615;41.410;2.194;2023-04-15T01:04:52;7.68;;;2.22;;
49396;SDS011;35615;41.410;2.194;2023-04-15T01:07:20;7.75;;;2.33;;
49396;SDS011;35615;41.410;2.194;2023-04-15T01:09:55;18.88;;;4.55;;
49396;SDS011;35615;41.410;2.194;2023-04-15T01:12:23;15.68;;;2.15;;
49396;SDS011;35615;41.410;2.194;2023-04-15T01:14:54;12.32;;;2.42;;
49396;SDS011;35615;41.410;2.194;2023-04-15T01:17:23;17.10;;;2.75;;
49396;SDS011;35615;41.410;2.194;2023-04-15T01:19:57;10.77;;;2.55;;
49396;SDS011;35615;41.410;2.194;2023-04-15T01:22:28;9.20;;;2.55;;
49396;SDS011;35615;41.410;2.194;2023-04-15T01:25:04;11.52;;;3.08;;
49396;SDS011;35615;41.410;2.194;2023-04-15T01:27:36;14.50;;;3.15;;
49396;SDS011;35615;41.410;2.194;2023-04-15T01:30:09;10.02;;;2.30;;
49396;SDS011;35615;41.410;2.194;2023-04-15T01:32:37;10.38;;;2.95;;
49396;SDS011;35615;41.410;2.194;2023-04-15T01:35:07;15.20;;;2.40;;
49396;SDS011;35615;41.410;2.194;2023-04-15T01:37:38;14.60;;;3.95;;
49396;SDS011;35615;41.410;2.194;2023-04-15T01:40:05;11.05;;;2.65;;
49396;SDS011;35615;41.410;2.194;2023-04-15T01:42:35;13.70;;;3.80;;
49396;SDS011;35615;41.410;2.194;2023-04-15T01:45:03;11.45;;;2.60;;
49396;SDS011;35615;41.410;2.194;2023-04-15T01:47:32;8.10;;;2.40;;
49396;SDS011;35615;41.410;2.194;2023-04-15T01:50:03;6.25;;;2.80;;
49396;SDS011;35615;41.410;2.194;2023-04-15T01:52:39;16.33;;;2.78;;
49396;SDS011;35615;41.410;2.194;2023-04-15T01:55:12;8.05;;;3.00;;
49396;SDS011;35615;41.410;2.194;2023-04-15T01:57:40;13.23;;;2.80;;
49396;SDS011;35615;41.410;2.194;2023-04-15T02:00:17;7.65;;;2.38;;
49396;SDS011;35615;41.410;2.194;2023-04-15T02:02:45;7.75;;;2.25;;
49396;SDS011;35615;41.410;2.194;2023-04-15T02:05:12;10.10;;;2.80;;
49396;SDS011;35615;41.410;2.194;2023-04-15T02:07:45;12.05;;;3.08;;
49396;SDS011;35615;41.410;2.194;2023-04-15T02:10:13;11.23;;;2.83;;
49396;SDS011;35615;41.410;2.194;2023-04-15T02:12:42;10.52;;;3.20;;
49396;SDS011;35615;41.410;2.194;2023-04-15T02:15:10;9.55;;;3.08;;
49396;SDS011;35615;41.410;2.194;2023-04-15T02:17:38;12.27;;;3.83;;
49396;SDS011;35615;41.410;2.194;2023-04-15T02:20:07;7.55;;;3.50;;
49396;SDS011;35615;41.410;2.194;2023-04-15T02:22:35;7.93;;;2.80;;
49396;SDS011;35615;41.410;2.194;2023-04-15T02:25:02;12.88;;;2.88;;
49396;SDS011;35615;41.410;2.194;2023-04-15T02:27:30;8.35;;;3.50;;
49396;SDS011;35615;41.410;2.194;2023-04-15T02:29:58;9.60;;;3.90;;
49396;SDS011;35615;41.410;2.194;2023-04-15T02:32:26;9.75;;;3.22;;
49396;SDS011;35615;41.410;2.194;2023-04-15T02:34:55;13.65;;;3.42;;
49396;SDS011;35615;41.410;2.194;2023-04-15T02:37:22;16.92;;;3.33;;
49396;SDS011;35615;41.410;2.194;2023-04-15T02:39:54;16.20;;;3.63;;
49396;SDS011;35615;41.410;2.194;2023-04-15T02:42:23;10.30;;;3.08;;
49396;SDS011;35615;41.410;2.194;2023-04-15T02:44:53;11.48;;;3.03;;
49396;SDS011;35615;41.410;2.194;2023-04-15T02:47:26;5.28;;;2.78;;
49396;SDS011;35615;41.410;2.194;2023-04-15T02:49:54;13.07;;;2.75;;
49396;SDS011;35615;41.410;2.194;2023-04-15T02:52:24;12.57;;;2.75;;
49396;SDS011;35615;41.410;2.194;2023-04-15T02:54:51;9.05;;;2.97;;
49396;SDS011;35615;41.410;2.194;2023-04-15T02:57:23;9.40;;;3.17;;
49396;SDS011;35615;41.410;2.194;2023-04-15T03:02:50;13.10;;;3.78;;
49396;SDS011;35615;41.410;2.194;2023-04-15T03:05:22;13.90;;;3.97;;
49396;SDS011;35615;41.410;2.194;2023-04-15T03:07:51;9.13;;;3.10;;
49396;SDS011;35615;41.410;2.194;2023-04-15T03:10:19;13.57;;;3.78;;
49396;SDS011;35615;41.410;2.194;2023-04-15T03:12:47;21.80;;;3.85;;
49396;SDS011;35615;41.410;2.194;2023-04-15T03:15:19;12.03;;;3.77;;
49396;SDS011;35615;41.410;2.194;2023-04-15T03:17:50;9.65;;;3.40;;
49396;SDS011;35615;41.410;2.194;2023-04-15T03:20:17;16.70;;;3.95;;
49396;SDS011;35615;41.410;2.194;2023-04-15T03:22:46;11.48;;;3.78;;
49396;SDS011;35615;41.410;2.194;2023-04-15T03:25:14;13.18;;;3.78;;
49396;SDS011;35615;41.410;2.194;2023-04-15T03:27:41;12.77;;;3.55;;
49396;SDS011;35615;41.410;2.194;2023-04-15T03:30:10;18.10;;;3.40;;
49396;SDS011;35615;41.410;2.194;2023-04-15T03:32:39;8.55;;;3.28;;
49396;SDS011;35615;41.410;2.194;2023-04-15T03:35:07;12.35;;;3.58;;
49396;SDS011;35615;41.410;2.194;2023-04-15T03:37:37;16.23;;;3.78;;
49396;SDS011;35615;41.410;2.194;2023-04-15T03:40:07;13.23;;;3.55;;
49396;SDS011;35615;41.410;2.194;2023-04-15T03:42:41;12.48;;;4.07;;
49396;SDS011;35615;41.410;2.194;2023-04-15T03:45:08;11.00;;;3.65;;
49396;SDS011;35615;41.410;2.194;2023-04-15T03:47:41;8.57;;;3.72;;
49396;SDS011;35615;41.410;2.194;2023-04-15T03:50:09;9.70;;;4.22;;
49396;SDS011;35615;41.410;2.194;2023-04-15T03:52:43;8.35;;;4.03;;
49396;SDS011;35615;41.410;2.194;2023-04-15T03:55:11;10.10;;;3.78;;
49396;SDS011;35615;41.410;2.194;2023-04-15T03:57:39;8.13;;;4.18;;
49396;SDS011;35615;41.410;2.194;2023-04-15T04:00:12;7.18;;;3.55;;
49396;SDS011;35615;41.410;2.194;2023-04-15T04:02:42;8.68;;;3.65;;
49396;SDS011;35615;41.410;2.194;2023-04-15T04:05:15;9.20;;;3.33;;
49396;SDS011;35615;41.410;2.194;2023-04-15T04:07:45;9.90;;;3.60;;
49396;SDS011;35615;41.410;2.194;2023-04-15T04:10:13;10.43;;;4.00;;
49396;SDS011;35615;41.410;2.194;2023-04-15T04:12:40;15.10;;;3.72;;
49396;SDS011;35615;41.410;2.194;2023-04-15T04:15:08;7.45;;;3.47;;
49396;SDS011;35615;41.410;2.194;2023-04-15T04:17:35;12.95;;;4.03;;
49396;SDS011;35615;41.410;2.194;2023-04-15T04:20:03;10.13;;;3.25;;
49396;SDS011;35615;41.410;2.194;2023-04-15T04:22:35;13.02;;;4.10;;
49396;SDS011;35615;41.410;2.194;2023-04-15T04:25:06;8.35;;;3.60;;
49396;SDS011;35615;41.410;2.194;2023-04-15T04:27:34;10.13;;;3.80;;
49396;SDS011;35615;41.410;2.194;2023-04-15T04:30:05;7.72;;;3.22;;
49396;SDS011;35615;41.410;2.194;2023-04-15T04:32:50;6.78;;;2.88;;
49396;SDS011;35615;41.410;2.194;2023-04-15T04:35:19;11.05;;;3.38;;
49396;SDS011;35615;41.410;2.194;2023-04-15T04:37:53;12.35;;;3.50;;
49396;SDS011;35615;41.410;2.194;2023-04-15T04:40:23;10.45;;;3.03;;
49396;SDS011;35615;41.410;2.194;2023-04-15T04:42:53;12.00;;;2.90;;
49396;SDS011;35615;41.410;2.194;2023-04-15T04:45:21;9.88;;;2.90;;
49396;SDS011;35615;41.410;2.194;2023-04-15T04:47:51;8.93;;;3.42;;
49396;SDS011;35615;41.410;2.194;2023-04-15T04:50:21;10.38;;;3.05;;
49396;SDS011;35615;41.410;2.194;2023-04-15T04:52:54;11.05;;;2.97;;
49396;SDS011;35615;41.410;2.194;2023-04-15T04:55:21;13.48;;;2.88;;
49396;SDS011;35615;41.410;2.194;2023-04-15T04:57:51;6.25;;;2.30;;
49396;SDS011;35615;41.410;2.194;2023-04-15T05:00:24;8.15;;;3.05;;
49396;SDS011;35615;41.410;2.194;2023-04-15T05:02:54;10.73;;;2.30;;
49396;SDS011;35615;41.410;2.194;2023-04-15T05:05:25;9.10;;;2.08;;
49396;SDS011;35615;41.410;2.194;2023-04-15T05:07:52;10.35;;;2.25;;
49396;SDS011;35615;41.410;2.194;2023-04-15T05:10:22;5.60;;;1.70;;
49396;SDS011;35615;41.410;2.194;2023-04-15T05:12:49;9.93;;;2.50;;
49396;SDS011;35615;41.410;2.194;2023-04-15T05:15:20;6.72;;;2.47;;
49396;SDS011;35615;41.410;2.194;2023-04-15T05:17:47;10.02;;;2.00;;
49396;SDS011;35615;41.410;2.194;2023-04-15T05:20:16;6.60;;;2.08;;
49396;SDS011;35615;41.410;2.194;2023-04-15T05:22:43;19.13;;;2.78;;
49396;SDS011;35615;41.410;2.194;2023-04-15T05:25:20;15.00;;;2.50;;
49396;SDS011;35615;41.410;2.194;2023-04-15T05:27:48;6.80;;;2.55;;
49396;SDS011;35615;41.410;2.194;2023-04-15T05:30:15;5.13;;;1.65;;
49396;SDS011;35615;41.410;2.194;2023-04-15T05:32:43;9.45;;;1.77;;
49396;SDS011;35615;41.410;2.194;2023-04-15T05:35:14;9.18;;;1.80;;
49396;SDS011;35615;41.410;2.194;2023-04-15T05:37:47;8.15;;;1.40;;
49396;SDS011;35615;41.410;2.194;2023-04-15T05:40:23;6.50;;;2.05;;
49396;SDS011;35615;41.410;2.194;2023-04-15T05:43:02;6.97;;;1.50;;
49396;SDS011;35615;41.410;2.194;2023-04-15T05:45:30;4.57;;;1.33;;
49396;SDS011;35615;41.410;2.194;2023-04-15T05:48:18;8.50;;;1.80;;
49396;SDS011;35615;41.410;2.194;2023-04-15T05:50:56;6.78;;;1.38;;
49396;SDS011;35615;41.410;2.194;2023-04-15T05:53:27;12.15;;;2.00;;
49396;SDS011;35615;41.410;2.194;2023-04-15T05:55:58;8.15;;;2.08;;
49396;SDS011;35615;41.410;2.194;2023-04-15T05:58:26;9.20;;;2.28;;
49396;SDS011;35615;41.410;2.194;2023-04-15T06:00:55;5.40;;;1.60;;
49396;SDS011;35615;41.410;2.194;2023-04-15T06:03:37;11.05;;;1.63;;
49396;SDS011;35615;41.410;2.194;2023-04-15T06:06:05;7.25;;;1.88;;
49396;SDS011;35615;41.410;2.194;2023-04-15T06:08:33;6.35;;;1.33;;
49396;SDS011;35615;41.410;2.194;2023-04-15T06:11:05;7.05;;;1.77;;
49396;SDS011;35615;41.410;2.194;2023-04-15T06:13:36;11.55;;;2.30;;
49396;SDS011;35615;41.410;2.194;2023-04-15T06:16:09;6.60;;;2.50;;
49396;SDS011;35615;41.410;2.194;2023-04-15T06:18:42;11.82;;;3.08;;
49396;SDS011;35615;41.410;2.194;2023-04-15T06:21:10;15.32;;;3.10;;
49396;SDS011;35615;41.410;2.194;2023-04-15T06:23:37;10.43;;;3.30;;
49396;SDS011;35615;41.410;2.194;2023-04-15T06:26:09;5.60;;;3.50;;
49396;SDS011;35615;41.410;2.194;2023-04-15T06:28:39;9.13;;;3.00;;
49396;SDS011;35615;41.410;2.194;2023-04-15T06:31:12;10.73;;;3.20;;
49396;SDS011;35615;41.410;2.194;2023-04-15T06:33:41;12.60;;;4.18;;
49396;SDS011;35615;41.410;2.194;2023-04-15T06:36:11;10.13;;;3.55;;
49396;SDS011;35615;41.410;2.194;2023-04-15T06:41:20;13.07;;;3.63;;
49396;SDS011;35615;41.410;2.194;2023-04-15T06:43:47;9.43;;;3.08;;
49396;SDS011;35615;41.410;2.194;2023-04-15T06:46:21;12.88;;;3.38;;
49396;SDS011;35615;41.410;2.194;2023-04-15T06:48:51;10.82;;;3.55;;
49396;SDS011;35615;41.410;2.194;2023-04-15T06:51:21;16.80;;;3.63;;
49396;SDS011;35615;41.410;2.194;2023-04-15T06:53:57;20.38;;;4.28;;
49396;SDS011;35615;41.410;2.194;2023-04-15T06:56:27;21.40;;;3.13;;
49396;SDS011;35615;41.410;2.194;2023-04-15T06:58:56;11.57;;;2.80;;
49396;SDS011;35615;41.410;2.194;2023-04-15T07:01:27;17.17;;;4.00;;
49396;SDS011;35615;41.410;2.194;2023-04-15T07:03:57;12.40;;;3.10;;
49396;SDS011;35615;41.410;2.194;2023-04-15T07:06:24;6.82;;;2.50;;
49396;SDS011;35615;41.410;2.194;2023-04-15T07:08:58;7.75;;;3.03;;
49396;SDS011;35615;41.410;2.194;2023-04-15T07:11:31;5.25;;;2.58;;
49396;SDS011;35615;41.410;2.194;2023-04-15T07:14:02;11.80;;;3.35;;
49396;SDS011;35615;41.410;2.194;2023-04-15T07:16:35;12.75;;;3.58;;
49396;SDS011;35615;41.410;2.194;2023-04-15T07:19:05;9.95;;;3.80;;
49396;SDS011;35615;41.410;2.194;2023-04-15T07:21:33;17.38;;;3.88;;
49396;SDS011;35615;41.410;2.194;2023-04-15T07:24:03;13.30;;;3.17;;
49396;SDS011;35615;41.410;2.194;2023-04-15T07:26:39;13.32;;;3.03;;
49396;SDS011;35615;41.410;2.194;2023-04-15T07:29:09;13.52;;;3.05;;
49396;SDS011;35615;41.410;2.194;2023-04-15T07:31:39;11.35;;;3.53;;
49396;SDS011;35615;41.410;2.194;2023-04-15T07:34:07;11.95;;;2.83;;
49396;SDS011;35615;41.410;2.194;2023-04-15T07:36:38;9.20;;;2.50;;
49396;SDS011;35615;41.410;2.194;2023-04-15T07:39:09;9.15;;;2.85;;
49396;SDS011;35615;41.410;2.194;2023-04-15T07:41:39;5.90;;;3.15;;
49396;SDS011;35615;41.410;2.194;2023-04-15T07:44:20;11.15;;;2.85;;
49396;SDS011;35615;41.410;2.194;2023-04-15T07:46:54;8.77;;;2.58;;
49396;SDS011;35615;41.410;2.194;2023-04-15T07:49:27;3.45;;;1.73;;
49396;SDS011;35615;41.410;2.194;2023-04-15T07:52:02;11.45;;;2.35;;
49396;SDS011;35615;41.410;2.194;2023-04-15T07:54:30;10.40;;;1.45;;
49396;SDS011;35615;41.410;2.194;2023-04-15T07:56:59;8.27;;;1.65;;
49396;SDS011;35615;41.410;2.194;2023-04-15T07:59:27;10.25;;;2.33;;
49396;SDS011;35615;41.410;2.194;2023-04-15T08:01:56;13.57;;;2.22;;
49396;SDS011;35615;41.410;2.194;2023-04-15T08:04:30;2.72;;;1.40;;
49396;SDS011;35615;41.410;2.194;2023-04-15T08:07:01;18.80;;;3.13;;
49396;SDS011;35615;41.410;2.194;2023-04-15T08:09:31;7.22;;;1.75;;
49396;SDS011;35615;41.410;2.194;2023-04-15T08:11:59;5.22;;;1.30;;
49396;SDS011;35615;41.410;2.194;2023-04-15T08:14:30;7.90;;;1.50;;
49396;SDS011;35615;41.410;2.194;2023-04-15T08:17:03;6.18;;;1.58;;
49396;SDS011;35615;41.410;2.194;2023-04-15T08:19:31;8.07;;;1.55;;
49396;SDS011;35615;41.410;2.194;2023-04-15T08:22:05;8.55;;;1.60;;
49396;SDS011;35615;41.410;2.194;2023-04-15T08:24:43;7.15;;;1.48;;
49396;SDS011;35615;41.410;2.194;2023-04-15T08:27:11;9.40;;;1.75;;
49396;SDS011;35615;41.410;2.194;2023-04-15T08:29:47;6.43;;;1.70;;
49396;SDS011;35615;41.410;2.194;2023-04-15T08:32:17;5.07;;;1.37;;
49396;SDS011;35615;41.410;2.194;2023-04-15T08:34:49;5.05;;;1.95;;
49396;SDS011;35615;41.410;2.194;2023-04-15T08:37:17;6.70;;;1.70;;
49396;SDS011;35615;41.410;2.194;2023-04-15T08:39:44;10.85;;;1.90;;
49396;SDS011;35615;41.410;2.194;2023-04-15T08:42:15;5.75;;;1.48;;
49396;SDS011;35615;41.410;2.194;2023-04-15T08:44:45;6.97;;;2.25;;
49396;SDS011;35615;41.410;2.194;2023-04-15T08:47:14;3.28;;;1.20;;
49396;SDS011;35615;41.410;2.194;2023-04-15T08:49:46;5.70;;;1.20;;
49396;SDS011;35615;41.410;2.194;2023-04-15T08:54:58;7.68;;;1.80;;
49396;SDS011;35615;41.410;2.194;2023-04-15T08:57:31;8.38;;;1.80;;
49396;SDS011;35615;41.410;2.194;2023-04-15T09:00:17;3.78;;;1.50;;
49396;SDS011;35615;41.410;2.194;2023-04-15T09:02:50;2.22;;;1.30;;
49396;SDS011;35615;41.410;2.194;2023-04-15T09:07:52;5.95;;;1.95;;
49396;SDS011;35615;41.410;2.194;2023-04-15T09:10:20;4.35;;;1.52;;
49396;SDS011;35615;41.410;2.194;2023-04-15T09:12:48;8.35;;;1.48;;
49396;SDS011;35615;41.410;2.194;2023-04-15T09:15:15;6.47;;;1.30;;
49396;SDS011;35615;41.410;2.194;2023-04-15T09:17:45;11.52;;;1.45;;
49396;SDS011;35615;41.410;2.194;2023-04-15T09:20:20;8.93;;;2.25;;
49396;SDS011;35615;41.410;2.194;2023-04-15T09:22:50;5.45;;;1.83;;
49396;SDS011;35615;41.410;2.194;2023-04-15T09:28:01;11.50;;;2.85;;
49396;SDS011;35615;41.410;2.194;2023-04-15T09:30:29;7.05;;;1.63;;
49396;SDS011;35615;41.410;2.194;2023-04-15T09:33:03;6.65;;;1.38;;
49396;SDS011;35615;41.410;2.194;2023-04-15T09:35:34;4.97;;;1.33;;
49396;SDS011;35615;41.410;2.194;2023-04-15T09:38:03;12.98;;;1.85;;
49396;SDS011;35615;41.410;2.194;2023-04-15T09:40:38;7.28;;;1.27;;
49396;SDS011;35615;41.410;2.194;2023-04-15T09:43:15;9.18;;;1.30;;
49396;SDS011;35615;41.410;2.194;2023-04-15T09:45:49;6.57;;;1.60;;
49396;SDS011;35615;41.410;2.194;2023-04-15T09:48:24;9.65;;;1.98;;
49396;SDS011;35615;41.410;2.194;2023-04-15T09:51:00;4.88;;;1.40;;
49396;SDS011;35615;41.410;2.194;2023-04-15T09:56:10;6.80;;;1.55;;
49396;SDS011;35615;41.410;2.194;2023-04-15T09:58:44;3.45;;;1.10;;
49396;SDS011;35615;41.410;2.194;2023-04-15T10:01:41;5.63;;;2.03;;
49396;SDS011;35615;41.410;2.194;2023-04-15T10:04:29;3.13;;;1.20;;
49396;SDS011;35615;41.410;2.194;2023-04-15T10:07:09;8.52;;;1.40;;
49396;SDS011;35615;41.410;2.194;2023-04-15T10:09:44;7.57;;;2.28;;
49396;SDS011;35615;41.410;2.194;2023-04-15T10:15:15;11.85;;;2.05;;
49396;SDS011;35615;41.410;2.194;2023-04-15T10:18:10;4.32;;;1.30;;
49396;SDS011;35615;41.410;2.194;2023-04-15T10:21:01;5.97;;;2.40;;
49396;SDS011;35615;41.410;2.194;2023-04-15T10:23:36;13.27;;;2.22;;
49396;SDS011;35615;41.410;2.194;2023-04-15T10:26:39;5.22;;;1.73;;
49396;SDS011;35615;41.410;2.194;2023-04-15T10:29:32;11.55;;;2.33;;
49396;SDS011;35615;41.410;2.194;2023-04-15T10:32:00;9.15;;;1.85;;
49396;SDS011;35615;41.410;2.194;2023-04-15T10:34:42;6.75;;;1.80;;
49396;SDS011;35615;41.410;2.194;2023-04-15T10:43:00;7.95;;;2.33;;
49396;SDS011;35615;41.410;2.194;2023-04-15T10:45:57;13.73;;;2.88;;
49396;SDS011;35615;41.410;2.194;2023-04-15T10:48:38;5.65;;;1.83;;
49396;SDS011;35615;41.410;2.194;2023-04-15T11:02:51;8.10;;;1.97;;
49396;SDS011;35615;41.410;2.194;2023-04-15T11:08:08;12.10;;;2.45;;
49396;SDS011;35615;41.410;2.194;2023-04-15T11:13:16;9.80;;;1.83;;
49396;SDS011;35615;41.410;2.194;2023-04-15T11:16:01;9.43;;;2.10;;
49396;SDS011;35615;41.410;2.194;2023-04-15T11:18:39;12.55;;;2.92;;
49396;SDS011;35615;41.410;2.194;2023-04-15T11:27:34;11.25;;;3.22;;
49396;SDS011;35615;41.410;2.194;2023-04-15T11:33:13;6.65;;;2.28;;
49396;SDS011;35615;41.410;2.194;2023-04-15T11:35:46;10.23;;;2.30;;
49396;SDS011;35615;41.410;2.194;2023-04-15T11:38:26;5.10;;;2.03;;
49396;SDS011;35615;41.410;2.194;2023-04-15T11:41:30;10.05;;;2.38;;
49396;SDS011;35615;41.410;2.194;2023-04-15T11:44:14;16.63;;;4.38;;
49396;SDS011;35615;41.410;2.194;2023-04-15T11:50:12;10.55;;;3.10;;
49396;SDS011;35615;41.410;2.194;2023-04-15T11:52:56;9.02;;;2.35;;
49396;SDS011;35615;41.410;2.194;2023-04-15T11:55:48;11.05;;;4.22;;
49396;SDS011;35615;41.410;2.194;2023-04-15T11:58:23;11.65;;;3.83;;
49396;SDS011;35615;41.410;2.194;2023-04-15T12:01:16;7.13;;;2.40;;
49396;SDS011;35615;41.410;2.194;2023-04-15T12:03:51;8.80;;;2.05;;
49396;SDS011;35615;41.410;2.194;2023-04-15T12:06:39;10.70;;;1.50;;
49396;SDS011;35615;41.410;2.194;2023-04-15T12:09:21;10.93;;;2.95;;
49396;SDS011;35615;41.410;2.194;2023-04-15T12:12:04;11.73;;;3.28;;
49396;SDS011;35615;41.410;2.194;2023-04-15T12:14:44;10.90;;;2.70;;
49396;SDS011;35615;41.410;2.194;2023-04-15T12:17:23;7.35;;;2.15;;
49396;SDS011;35615;41.410;2.194;2023-04-15T12:20:24;5.68;;;1.60;;
49396;SDS011;35615;41.410;2.194;2023-04-15T12:23:18;14.35;;;2.25;;
49396;SDS011;35615;41.410;2.194;2023-04-15T12:26:05;9.55;;;2.10;;
49396;SDS011;35615;41.410;2.194;2023-04-15T12:28:42;7.65;;;2.10;;
49396;SDS011;35615;41.410;2.194;2023-04-15T12:34:08;9.40;;;1.77;;
49396;SDS011;35615;41.410;2.194;2023-04-15T12:36:46;12.88;;;2.08;;
49396;SDS011;35615;41.410;2.194;2023-04-15T12:39:25;10.05;;;2.17;;
49396;SDS011;35615;41.410;2.194;2023-04-15T12:42:15;8.68;;;2.40;;
49396;SDS011;35615;41.410;2.194;2023-04-15T12:45:07;7.70;;;3.13;;
49396;SDS011;35615;41.410;2.194;2023-04-15T12:47:43;9.95;;;2.55;;
49396;SDS011;35615;41.410;2.194;2023-04-15T12:50:40;8.43;;;2.10;;
49396;SDS011;35615;41.410;2.194;2023-04-15T12:53:13;7.78;;;2.05;;
49396;SDS011;35615;41.410;2.194;2023-04-15T12:55:49;10.82;;;3.50;;
49396;SDS011;35615;41.410;2.194;2023-04-15T12:58:20;7.13;;;2.33;;
49396;SDS011;35615;41.410;2.194;2023-04-15T13:01:05;8.40;;;1.40;;
49396;SDS011;35615;41.410;2.194;2023-04-15T13:03:41;7.65;;;2.78;;
49396;SDS011;35615;41.410;2.194;2023-04-15T13:06:18;7.93;;;2.30;;
49396;SDS011;35615;41.410;2.194;2023-04-15T13:08:50;8.98;;;2.53;;
49396;SDS011;35615;41.410;2.194;2023-04-15T13:11:33;9.30;;;1.90;;
49396;SDS011;35615;41.410;2.194;2023-04-15T13:14:06;5.93;;;1.50;;
49396;SDS011;35615;41.410;2.194;2023-04-15T13:16:43;9.40;;;2.20;;
49396;SDS011;35615;41.410;2.194;2023-04-15T13:19:11;8.63;;;2.00;;
49396;SDS011;35615;41.410;2.194;2023-04-15T13:21:47;7.20;;;2.15;;
49396;SDS011;35615;41.410;2.194;2023-04-15T13:24:31;6.00;;;1.95;;
49396;SDS011;35615;41.410;2.194;2023-04-15T13:26:58;4.32;;;2.08;;
49396;SDS011;35615;41.410;2.194;2023-04-15T13:29:34;10.43;;;5.57;;
49396;SDS011;35615;41.410;2.194;2023-04-15T13:32:15;8.48;;;2.38;;
49396;SDS011;35615;41.410;2.194;2023-04-15T13:34:46;9.13;;;2.60;;
49396;SDS011;35615;41.410;2.194;2023-04-15T13:37:17;7.68;;;1.73;;
49396;SDS011;35615;41.410;2.194;2023-04-15T13:39:57;7.70;;;1.50;;
49396;SDS011;35615;41.410;2.194;2023-04-15T13:42:27;6.15;;;2.17;;
49396;SDS011;35615;41.410;2.194;2023-04-15T13:45:00;9.57;;;1.60;;
49396;SDS011;35615;41.410;2.194;2023-04-15T13:47:30;11.25;;;1.63;;
49396;SDS011;35615;41.410;2.194;2023-04-15T13:50:00;8.57;;;2.25;;
49396;SDS011;35615;41.410;2.194;2023-04-15T13:52:31;5.45;;;1.75;;
49396;SDS011;35615;41.410;2.194;2023-04-15T13:55:09;4.88;;;1.50;;
49396;SDS011;35615;41.410;2.194;2023-04-15T13:57:50;5.70;;;2.10;;
49396;SDS011;35615;41.410;2.194;2023-04-15T14:00:42;8.65;;;1.42;;
49396;SDS011;35615;41.410;2.194;2023-04-15T14:03:16;5.32;;;1.35;;
49396;SDS011;35615;41.410;2.194;2023-04-15T14:05:55;9.45;;;1.60;;
49396;SDS011;35615;41.410;2.194;2023-04-15T14:11:12;8.32;;;1.88;;
49396;SDS011;35615;41.410;2.194;2023-04-15T14:13:49;8.48;;;2.10;;
49396;SDS011;35615;41.410;2.194;2023-04-15T14:16:22;9.65;;;2.33;;
49396;SDS011;35615;41.410;2.194;2023-04-15T14:18:54;8.82;;;2.00;;
49396;SDS011;35615;41.410;2.194;2023-04-15T14:21:34;8.20;;;1.88;;
49396;SDS011;35615;41.410;2.194;2023-04-15T14:24:20;12.00;;;2.17;;
49396;SDS011;35615;41.410;2.194;2023-04-15T14:27:15;7.97;;;1.85;;
49396;SDS011;35615;41.410;2.194;2023-04-15T14:29:54;5.63;;;2.30;;
49396;SDS011;35615;41.410;2.194;2023-04-15T14:32:30;8.52;;;2.67;;
49396;SDS011;35615;41.410;2.194;2023-04-15T14:35:25;12.95;;;2.55;;
49396;SDS011;35615;41.410;2.194;2023-04-15T14:37:56;17.38;;;3.28;;
49396;SDS011;35615;41.410;2.194;2023-04-15T14:40:39;15.02;;;3.42;;
49396;SDS011;35615;41.410;2.194;2023-04-15T14:43:10;25.00;;;3.97;;
49396;SDS011;35615;41.410;2.194;2023-04-15T14:45:46;18.73;;;2.72;;
49396;SDS011;35615;41.410;2.194;2023-04-15T14:48:29;13.27;;;2.85;;
49396;SDS011;35615;41.410;2.194;2023-04-15T14:51:00;16.90;;;3.03;;
49396;SDS011;35615;41.410;2.194;2023-04-15T14:53:32;20.27;;;3.53;;
49396;SDS011;35615;41.410;2.194;2023-04-15T14:56:18;15.88;;;3.58;;
49396;SDS011;35615;41.410;2.194;2023-04-15T14:58:48;11.43;;;3.65;;
49396;SDS011;35615;41.410;2.194;2023-04-15T15:01:19;19.75;;;2.47;;
49396;SDS011;35615;41.410;2.194;2023-04-15T15:06:33;25.27;;;3.13;;
49396;SDS011;35615;41.410;2.194;2023-04-15T15:09:00;10.25;;;2.50;;
49396;SDS011;35615;41.410;2.194;2023-04-15T15:11:32;14.15;;;2.25;;
49396;SDS011;35615;41.410;2.194;2023-04-15T15:14:02;10.90;;;2.22;;
49396;SDS011;35615;41.410;2.194;2023-04-15T15:16:32;19.48;;;2.13;;
49396;SDS011;35615;41.410;2.194;2023-04-15T15:19:03;9.70;;;2.15;;
49396;SDS011;35615;41.410;2.194;2023-04-15T15:21:30;13.15;;;1.85;;
49396;SDS011;35615;41.410;2.194;2023-04-15T15:23:58;13.02;;;2.58;;
49396;SDS011;35615;41.410;2.194;2023-04-15T15:26:25;13.98;;;2.25;;
49396;SDS011;35615;41.410;2.194;2023-04-15T15:28:56;13.32;;;2.13;;
49396;SDS011;35615;41.410;2.194;2023-04-15T15:31:26;16.27;;;1.83;;
49396;SDS011;35615;41.410;2.194;2023-04-15T15:33:59;10.40;;;1.60;;
49396;SDS011;35615;41.410;2.194;2023-04-15T15:36:30;17.38;;;1.88;;
49396;SDS011;35615;41.410;2.194;2023-04-15T15:39:00;16.33;;;2.53;;
49396;SDS011;35615;41.410;2.194;2023-04-15T15:41:40;22.42;;;2.28;;
49396;SDS011;35615;41.410;2.194;2023-04-15T15:44:07;15.18;;;1.92;;
49396;SDS011;35615;41.410;2.194;2023-04-15T15:46:35;13.38;;;2.13;;
49396;SDS011;35615;41.410;2.194;2023-04-15T15:49:06;8.63;;;1.83;;
49396;SDS011;35615;41.410;2.194;2023-04-15T15:51:38;13.52;;;2.35;;
49396;SDS011;35615;41.410;2.194;2023-04-15T15:54:28;12.00;;;2.25;;
49396;SDS011;35615;41.410;2.194;2023-04-15T15:57:06;17.00;;;2.20;;
49396;SDS011;35615;41.410;2.194;2023-04-15T15:59:34;8.32;;;2.00;;
49396;SDS011;35615;41.410;2.194;2023-04-15T16:02:34;9.52;;;1.60;;
49396;SDS011;35615;41.410;2.194;2023-04-15T16:05:18;17.02;;;1.77;;
49396;SDS011;35615;41.410;2.194;2023-04-15T16:07:52;10.82;;;2.28;;
49396;SDS011;35615;41.410;2.194;2023-04-15T16:10:23;15.80;;;1.85;;
49396;SDS011;35615;41.410;2.194;2023-04-15T16:12:53;8.25;;;1.77;;
49396;SDS011;35615;41.410;2.194;2023-04-15T16:15:38;17.13;;;2.30;;
49396;SDS011;35615;41.410;2.194;2023-04-15T16:20:50;14.50;;;2.05;;
49396;SDS011;35615;41.410;2.194;2023-04-15T16:23:34;13.65;;;2.50;;
49396;SDS011;35615;41.410;2.194;2023-04-15T16:26:27;10.38;;;1.58;;